sensor_id;sensor_type;location;lat;lon;timestamp;P1;durP1;ratioP1;P2;durP2;ratioP2
16624;SDS011;8426;48.496;9.098;2023-05-03T00:02:22;5.55;;;3.28;;
16624;SDS011;8426;48.496;9.098;2023-05-03T00:07:27;6.00;;;3.28;;
16624;SDS011;8426;48.496;9.098;2023-05-03T00:12:31;9.45;;;3.42;;
16624;SDS011;8426;48.496;9.098;2023-05-03T00:17:37;6.10;;;3.35;;
16624;SDS011;8426;48.496;9.098;2023-05-03T00:22:42;4.30;;;2.60;;
16624;SDS011;8426;48.496;9.098;2023-05-03T00:27:45;5.38;;;2.05;;
16624;SDS011;8426;48.496;9.098;2023-05-03T00:32:49;3.35;;;2.25;;
16624;SDS011;8426;48.496;9.098;2023-05-03T00:37:55;8.77;;;2.80;;
16624;SDS011;8426;48.496;9.098;2023-05-03T00:42:59;5.45;;;2.58;;
16624;SDS011;8426;48.496;9.098;2023-05-03T00:48:02;5.20;;;2.90;;
16624;SDS011;8426;48.496;9.098;2023-05-03T00:53:08;4.78;;;2.63;;
16624;SDS011;8426;48.496;9.098;2023-05-03T00:58:12;7.03;;;2.85;;
16624;SDS011;8426;48.496;9.098;2023-05-03T01:03:16;5.85;;;2.90;;
16624;SDS011;8426;48.496;9.098;2023-05-03T01:08:22;7.38;;;3.35;;
16624;SDS011;8426;48.496;9.098;2023-05-03T01:13:33;5.63;;;3.20;;
16624;SDS011;8426;48.496;9.098;2023-05-03T01:18:44;4.97;;;2.92;;
16624;SDS011;8426;48.496;9.098;2023-05-03T01:23:55;5.65;;;3.25;;
16624;SDS011;8426;48.496;9.098;2023-05-03T01:29:04;15.32;;;3.70;;
16624;SDS011;8426;48.496;9.098;2023-05-03T01:34:10;6.32;;;3.25;;
16624;SDS011;8426;48.496;9.098;2023-05-03T01:39:23;5.05;;;2.88;;
16624;SDS011;8426;48.496;9.098;2023-05-03T01:44:33;4.30;;;2.65;;
16624;SDS011;8426;48.496;9.098;2023-05-03T01:49:38;9.35;;;3.47;;
16624;SDS011;8426;48.496;9.098;2023-05-03T01:54:42;8.20;;;4.07;;
16624;SDS011;8426;48.496;9.098;2023-05-03T01:59:49;6.50;;;3.17;;
16624;SDS011;8426;48.496;9.098;2023-05-03T02:04:53;6.10;;;3.38;;
16624;SDS011;8426;48.496;9.098;2023-05-03T02:09:57;5.90;;;3.60;;
16624;SDS011;8426;48.496;9.098;2023-05-03T02:15:03;9.88;;;3.22;;
16624;SDS011;8426;48.496;9.098;2023-05-03T02:20:09;10.00;;;3.17;;
16624;SDS011;8426;48.496;9.098;2023-05-03T02:25:13;7.28;;;3.42;;
16624;SDS011;8426;48.496;9.098;2023-05-03T02:30:18;5.75;;;3.35;;
16624;SDS011;8426;48.496;9.098;2023-05-03T02:35:21;11.45;;;4.20;;
16624;SDS011;8426;48.496;9.098;2023-05-03T02:40:25;10.35;;;4.18;;
16624;SDS011;8426;48.496;9.098;2023-05-03T02:45:30;8.30;;;4.17;;
16624;SDS011;8426;48.496;9.098;2023-05-03T02:50:37;7.25;;;3.83;;
16624;SDS011;8426;48.496;9.098;2023-05-03T02:55:41;7.72;;;3.88;;
16624;SDS011;8426;48.496;9.098;2023-05-03T03:00:46;9.48;;;3.65;;
16624;SDS011;8426;48.496;9.098;2023-05-03T03:05:51;5.70;;;3.40;;
16624;SDS011;8426;48.496;9.098;2023-05-03T03:10:54;8.50;;;3.75;;
16624;SDS011;8426;48.496;9.098;2023-05-03T03:15:59;11.55;;;4.65;;
16624;SDS011;8426;48.496;9.098;2023-05-03T03:21:02;12.50;;;4.30;;
16624;SDS011;8426;48.496;9.098;2023-05-03T03:26:07;8.37;;;4.20;;
16624;SDS011;8426;48.496;9.098;2023-05-03T03:31:13;7.83;;;4.50;;
16624;SDS011;8426;48.496;9.098;2023-05-03T03:36:18;11.37;;;4.80;;
16624;SDS011;8426;48.496;9.098;2023-05-03T03:41:22;8.53;;;4.70;;
16624;SDS011;8426;48.496;9.098;2023-05-03T03:46:26;8.67;;;4.47;;
16624;SDS011;8426;48.496;9.098;2023-05-03T03:51:31;8.67;;;3.63;;
16624;SDS011;8426;48.496;9.098;2023-05-03T03:56:34;7.50;;;3.50;;
16624;SDS011;8426;48.496;9.098;2023-05-03T04:01:42;10.37;;;4.43;;
16624;SDS011;8426;48.496;9.098;2023-05-03T04:06:45;10.63;;;4.78;;
16624;SDS011;8426;48.496;9.098;2023-05-03T04:11:51;11.75;;;5.25;;
16624;SDS011;8426;48.496;9.098;2023-05-03T04:16:57;9.27;;;4.70;;
16624;SDS011;8426;48.496;9.098;2023-05-03T04:22:04;16.70;;;5.43;;
16624;SDS011;8426;48.496;9.098;2023-05-03T04:27:08;10.55;;;5.10;;
16624;SDS011;8426;48.496;9.098;2023-05-03T04:32:15;9.55;;;4.65;;
16624;SDS011;8426;48.496;9.098;2023-05-03T04:37:25;11.90;;;5.13;;
16624;SDS011;8426;48.496;9.098;2023-05-03T04:42:31;11.18;;;4.72;;
16624;SDS011;8426;48.496;9.098;2023-05-03T04:47:37;13.75;;;4.88;;
16624;SDS011;8426;48.496;9.098;2023-05-03T04:52:40;9.60;;;4.50;;
16624;SDS011;8426;48.496;9.098;2023-05-03T04:57:45;12.15;;;5.30;;
16624;SDS011;8426;48.496;9.098;2023-05-03T05:02:50;9.35;;;4.50;;
16624;SDS011;8426;48.496;9.098;2023-05-03T05:07:53;10.43;;;4.85;;
16624;SDS011;8426;48.496;9.098;2023-05-03T05:12:58;12.05;;;5.60;;
16624;SDS011;8426;48.496;9.098;2023-05-03T05:18:06;13.50;;;5.63;;
16624;SDS011;8426;48.496;9.098;2023-05-03T05:23:09;12.88;;;4.80;;
16624;SDS011;8426;48.496;9.098;2023-05-03T05:28:16;11.43;;;5.00;;
16624;SDS011;8426;48.496;9.098;2023-05-03T05:33:24;14.15;;;5.40;;
16624;SDS011;8426;48.496;9.098;2023-05-03T05:38:28;9.77;;;4.15;;
16624;SDS011;8426;48.496;9.098;2023-05-03T05:43:34;11.80;;;4.57;;
16624;SDS011;8426;48.496;9.098;2023-05-03T05:48:39;11.80;;;5.38;;
16624;SDS011;8426;48.496;9.098;2023-05-03T05:53:43;10.50;;;5.25;;
16624;SDS011;8426;48.496;9.098;2023-05-03T05:58:47;9.52;;;4.78;;
16624;SDS011;8426;48.496;9.098;2023-05-03T06:03:54;10.43;;;5.25;;
16624;SDS011;8426;48.496;9.098;2023-05-03T06:08:59;10.47;;;6.20;;
16624;SDS011;8426;48.496;9.098;2023-05-03T06:14:24;12.88;;;4.60;;
16624;SDS011;8426;48.496;9.098;2023-05-03T06:19:29;9.73;;;5.38;;
16624;SDS011;8426;48.496;9.098;2023-05-03T06:24:32;14.98;;;5.78;;
16624;SDS011;8426;48.496;9.098;2023-05-03T06:29:38;13.82;;;6.10;;
16624;SDS011;8426;48.496;9.098;2023-05-03T06:34:50;16.55;;;6.53;;
16624;SDS011;8426;48.496;9.098;2023-05-03T06:39:53;11.20;;;6.60;;
16624;SDS011;8426;48.496;9.098;2023-05-03T06:45:05;16.63;;;7.63;;
16624;SDS011;8426;48.496;9.098;2023-05-03T06:50:15;12.20;;;6.55;;
16624;SDS011;8426;48.496;9.098;2023-05-03T06:55:21;13.02;;;7.43;;
16624;SDS011;8426;48.496;9.098;2023-05-03T07:00:25;12.23;;;5.93;;
16624;SDS011;8426;48.496;9.098;2023-05-03T07:05:29;12.43;;;6.53;;
16624;SDS011;8426;48.496;9.098;2023-05-03T07:10:33;12.18;;;6.40;;
16624;SDS011;8426;48.496;9.098;2023-05-03T07:15:38;15.73;;;6.70;;
16624;SDS011;8426;48.496;9.098;2023-05-03T07:20:43;12.05;;;6.20;;
16624;SDS011;8426;48.496;9.098;2023-05-03T07:25:46;14.15;;;6.50;;
16624;SDS011;8426;48.496;9.098;2023-05-03T07:30:55;14.65;;;5.82;;
16624;SDS011;8426;48.496;9.098;2023-05-03T07:36:03;10.82;;;5.72;;
16624;SDS011;8426;48.496;9.098;2023-05-03T07:41:09;13.85;;;6.40;;
16624;SDS011;8426;48.496;9.098;2023-05-03T07:46:14;11.45;;;6.45;;
16624;SDS011;8426;48.496;9.098;2023-05-03T07:51:21;9.63;;;6.15;;
16624;SDS011;8426;48.496;9.098;2023-05-03T07:56:25;11.68;;;6.57;;
16624;SDS011;8426;48.496;9.098;2023-05-03T08:01:30;11.38;;;6.82;;
16624;SDS011;8426;48.496;9.098;2023-05-03T08:06:42;11.05;;;6.63;;
16624;SDS011;8426;48.496;9.098;2023-05-03T08:11:45;15.05;;;6.28;;
16624;SDS011;8426;48.496;9.098;2023-05-03T08:16:51;10.13;;;5.60;;
16624;SDS011;8426;48.496;9.098;2023-05-03T08:21:59;9.05;;;5.40;;
16624;SDS011;8426;48.496;9.098;2023-05-03T08:27:05;7.53;;;5.15;;
16624;SDS011;8426;48.496;9.098;2023-05-03T08:32:10;10.68;;;5.35;;
16624;SDS011;8426;48.496;9.098;2023-05-03T08:37:16;7.93;;;5.90;;
16624;SDS011;8426;48.496;9.098;2023-05-03T08:42:24;7.75;;;5.90;;
16624;SDS011;8426;48.496;9.098;2023-05-03T08:47:32;11.02;;;5.75;;
16624;SDS011;8426;48.496;9.098;2023-05-03T08:52:42;11.07;;;7.35;;
16624;SDS011;8426;48.496;9.098;2023-05-03T08:57:46;8.07;;;6.22;;
16624;SDS011;8426;48.496;9.098;2023-05-03T09:02:56;10.38;;;7.47;;
16624;SDS011;8426;48.496;9.098;2023-05-03T09:08:41;9.65;;;7.03;;
16624;SDS011;8426;48.496;9.098;2023-05-03T09:13:45;8.90;;;6.90;;
16624;SDS011;8426;48.496;9.098;2023-05-03T09:18:57;8.48;;;6.70;;
16624;SDS011;8426;48.496;9.098;2023-05-03T09:24:12;11.32;;;6.10;;
16624;SDS011;8426;48.496;9.098;2023-05-03T09:29:31;8.13;;;6.60;;
16624;SDS011;8426;48.496;9.098;2023-05-03T09:34:37;9.52;;;6.65;;
16624;SDS011;8426;48.496;9.098;2023-05-03T09:39:45;13.00;;;8.02;;
16624;SDS011;8426;48.496;9.098;2023-05-03T09:44:51;10.18;;;7.57;;
16624;SDS011;8426;48.496;9.098;2023-05-03T09:55:10;13.32;;;7.75;;
16624;SDS011;8426;48.496;9.098;2023-05-03T10:00:14;15.48;;;7.75;;
16624;SDS011;8426;48.496;9.098;2023-05-03T10:05:21;12.27;;;7.72;;
16624;SDS011;8426;48.496;9.098;2023-05-03T10:10:28;14.30;;;7.93;;
16624;SDS011;8426;48.496;9.098;2023-05-03T10:15:37;10.82;;;6.13;;
16624;SDS011;8426;48.496;9.098;2023-05-03T10:20:44;8.90;;;5.50;;
16624;SDS011;8426;48.496;9.098;2023-05-03T10:36:53;14.68;;;5.85;;
16624;SDS011;8426;48.496;9.098;2023-05-03T10:42:01;13.82;;;5.00;;
16624;SDS011;8426;48.496;9.098;2023-05-03T10:47:09;9.85;;;5.43;;
16624;SDS011;8426;48.496;9.098;2023-05-03T10:57:55;7.47;;;4.72;;
16624;SDS011;8426;48.496;9.098;2023-05-03T11:03:12;8.35;;;5.78;;
16624;SDS011;8426;48.496;9.098;2023-05-03T11:08:33;16.42;;;4.80;;
16624;SDS011;8426;48.496;9.098;2023-05-03T11:13:39;9.02;;;4.70;;
16624;SDS011;8426;48.496;9.098;2023-05-03T11:18:43;10.88;;;4.70;;
16624;SDS011;8426;48.496;9.098;2023-05-03T11:23:54;8.57;;;4.75;;
16624;SDS011;8426;48.496;9.098;2023-05-03T11:29:09;8.80;;;4.47;;
16624;SDS011;8426;48.496;9.098;2023-05-03T11:34:14;11.80;;;5.40;;
16624;SDS011;8426;48.496;9.098;2023-05-03T11:39:18;7.97;;;4.90;;
16624;SDS011;8426;48.496;9.098;2023-05-03T11:44:31;10.18;;;4.35;;
16624;SDS011;8426;48.496;9.098;2023-05-03T11:49:50;8.48;;;5.20;;
16624;SDS011;8426;48.496;9.098;2023-05-03T11:54:54;13.38;;;5.20;;
16624;SDS011;8426;48.496;9.098;2023-05-03T12:00:13;8.15;;;4.80;;
16624;SDS011;8426;48.496;9.098;2023-05-03T12:05:22;9.63;;;4.72;;
16624;SDS011;8426;48.496;9.098;2023-05-03T12:10:34;7.70;;;4.18;;
16624;SDS011;8426;48.496;9.098;2023-05-03T12:15:54;8.30;;;4.30;;
16624;SDS011;8426;48.496;9.098;2023-05-03T12:21:07;6.35;;;4.18;;
16624;SDS011;8426;48.496;9.098;2023-05-03T12:26:30;14.38;;;4.18;;
16624;SDS011;8426;48.496;9.098;2023-05-03T12:31:39;7.70;;;3.63;;
16624;SDS011;8426;48.496;9.098;2023-05-03T12:37:08;4.75;;;3.30;;
16624;SDS011;8426;48.496;9.098;2023-05-03T12:42:17;8.25;;;3.97;;
16624;SDS011;8426;48.496;9.098;2023-05-03T12:47:26;4.53;;;3.03;;
16624;SDS011;8426;48.496;9.098;2023-05-03T12:52:36;6.57;;;3.17;;
16624;SDS011;8426;48.496;9.098;2023-05-03T12:57:47;6.22;;;2.63;;
16624;SDS011;8426;48.496;9.098;2023-05-03T13:03:14;6.53;;;3.35;;
16624;SDS011;8426;48.496;9.098;2023-05-03T13:08:23;7.75;;;3.42;;
16624;SDS011;8426;48.496;9.098;2023-05-03T13:13:35;5.53;;;3.13;;
16624;SDS011;8426;48.496;9.098;2023-05-03T13:18:45;5.82;;;3.00;;
16624;SDS011;8426;48.496;9.098;2023-05-03T13:23:49;6.38;;;3.05;;
16624;SDS011;8426;48.496;9.098;2023-05-03T13:28:53;5.75;;;3.00;;
16624;SDS011;8426;48.496;9.098;2023-05-03T13:34:05;5.35;;;2.67;;
16624;SDS011;8426;48.496;9.098;2023-05-03T13:39:10;4.97;;;3.03;;
16624;SDS011;8426;48.496;9.098;2023-05-03T13:44:15;4.70;;;2.60;;
16624;SDS011;8426;48.496;9.098;2023-05-03T13:49:22;4.13;;;2.70;;
16624;SDS011;8426;48.496;9.098;2023-05-03T13:54:26;7.88;;;3.13;;
16624;SDS011;8426;48.496;9.098;2023-05-03T13:59:38;3.92;;;2.60;;
16624;SDS011;8426;48.496;9.098;2023-05-03T14:04:43;7.60;;;3.60;;
16624;SDS011;8426;48.496;9.098;2023-05-03T14:09:48;5.10;;;2.80;;
16624;SDS011;8426;48.496;9.098;2023-05-03T14:14:57;4.47;;;2.60;;
16624;SDS011;8426;48.496;9.098;2023-05-03T14:20:08;3.70;;;2.45;;
16624;SDS011;8426;48.496;9.098;2023-05-03T14:25:15;4.50;;;2.78;;
16624;SDS011;8426;48.496;9.098;2023-05-03T14:30:28;4.93;;;2.65;;
16624;SDS011;8426;48.496;9.098;2023-05-03T14:35:39;4.88;;;2.97;;
16624;SDS011;8426;48.496;9.098;2023-05-03T14:40:50;5.57;;;3.33;;
16624;SDS011;8426;48.496;9.098;2023-05-03T14:45:53;3.65;;;2.45;;
16624;SDS011;8426;48.496;9.098;2023-05-03T14:51:06;5.78;;;2.50;;
16624;SDS011;8426;48.496;9.098;2023-05-03T14:56:11;4.53;;;2.58;;
16624;SDS011;8426;48.496;9.098;2023-05-03T15:01:20;5.35;;;2.40;;
16624;SDS011;8426;48.496;9.098;2023-05-03T15:06:28;4.55;;;2.30;;
16624;SDS011;8426;48.496;9.098;2023-05-03T15:11:33;7.03;;;2.60;;
16624;SDS011;8426;48.496;9.098;2023-05-03T15:16:47;5.88;;;2.30;;
16624;SDS011;8426;48.496;9.098;2023-05-03T15:21:54;7.53;;;2.22;;
16624;SDS011;8426;48.496;9.098;2023-05-03T15:27:05;19.25;;;3.97;;
16624;SDS011;8426;48.496;9.098;2023-05-03T15:32:18;4.53;;;2.92;;
16624;SDS011;8426;48.496;9.098;2023-05-03T15:37:32;3.15;;;2.00;;
16624;SDS011;8426;48.496;9.098;2023-05-03T15:42:39;6.13;;;2.38;;
16624;SDS011;8426;48.496;9.098;2023-05-03T15:47:49;3.03;;;1.88;;
16624;SDS011;8426;48.496;9.098;2023-05-03T15:53:00;5.85;;;2.50;;
16624;SDS011;8426;48.496;9.098;2023-05-03T15:58:04;6.40;;;1.83;;
16624;SDS011;8426;48.496;9.098;2023-05-03T16:03:24;4.53;;;1.70;;
16624;SDS011;8426;48.496;9.098;2023-05-03T16:08:36;4.30;;;1.95;;
16624;SDS011;8426;48.496;9.098;2023-05-03T16:13:42;6.15;;;2.10;;
16624;SDS011;8426;48.496;9.098;2023-05-03T16:18:51;4.53;;;2.13;;
16624;SDS011;8426;48.496;9.098;2023-05-03T16:24:07;4.03;;;1.55;;
16624;SDS011;8426;48.496;9.098;2023-05-03T16:29:20;3.30;;;1.75;;
16624;SDS011;8426;48.496;9.098;2023-05-03T16:34:32;3.85;;;2.00;;
16624;SDS011;8426;48.496;9.098;2023-05-03T16:39:45;4.45;;;2.00;;
16624;SDS011;8426;48.496;9.098;2023-05-03T16:44:55;2.45;;;1.77;;
16624;SDS011;8426;48.496;9.098;2023-05-03T16:50:01;3.38;;;1.92;;
16624;SDS011;8426;48.496;9.098;2023-05-03T16:55:11;3.47;;;1.90;;
16624;SDS011;8426;48.496;9.098;2023-05-03T17:00:15;3.78;;;1.90;;
16624;SDS011;8426;48.496;9.098;2023-05-03T17:05:24;2.40;;;1.58;;
16624;SDS011;8426;48.496;9.098;2023-05-03T17:10:38;2.25;;;1.50;;
16624;SDS011;8426;48.496;9.098;2023-05-03T17:15:46;6.65;;;1.90;;
16624;SDS011;8426;48.496;9.098;2023-05-03T17:20:49;2.78;;;1.77;;
16624;SDS011;8426;48.496;9.098;2023-05-03T17:25:58;11.63;;;2.60;;
16624;SDS011;8426;48.496;9.098;2023-05-03T17:31:09;9.68;;;2.60;;
16624;SDS011;8426;48.496;9.098;2023-05-03T17:36:13;6.50;;;2.30;;
16624;SDS011;8426;48.496;9.098;2023-05-03T17:41:17;3.80;;;2.00;;
16624;SDS011;8426;48.496;9.098;2023-05-03T17:46:23;3.70;;;1.73;;
16624;SDS011;8426;48.496;9.098;2023-05-03T17:51:29;3.53;;;2.20;;
16624;SDS011;8426;48.496;9.098;2023-05-03T17:56:35;4.65;;;2.80;;
16624;SDS011;8426;48.496;9.098;2023-05-03T18:01:39;8.43;;;2.97;;
16624;SDS011;8426;48.496;9.098;2023-05-03T18:06:45;5.40;;;2.45;;
16624;SDS011;8426;48.496;9.098;2023-05-03T18:11:52;3.33;;;2.20;;
16624;SDS011;8426;48.496;9.098;2023-05-03T18:17:00;5.90;;;2.30;;
16624;SDS011;8426;48.496;9.098;2023-05-03T18:22:04;4.53;;;2.10;;
16624;SDS011;8426;48.496;9.098;2023-05-03T18:27:10;3.20;;;2.13;;
16624;SDS011;8426;48.496;9.098;2023-05-03T18:32:15;2.70;;;1.90;;
16624;SDS011;8426;48.496;9.098;2023-05-03T18:37:18;4.40;;;1.88;;
16624;SDS011;8426;48.496;9.098;2023-05-03T18:42:29;7.18;;;2.60;;
16624;SDS011;8426;48.496;9.098;2023-05-03T18:47:33;3.80;;;2.35;;
16624;SDS011;8426;48.496;9.098;2023-05-03T18:52:36;5.10;;;2.42;;
16624;SDS011;8426;48.496;9.098;2023-05-03T18:57:42;6.85;;;2.70;;
16624;SDS011;8426;48.496;9.098;2023-05-03T19:02:45;5.28;;;2.63;;
16624;SDS011;8426;48.496;9.098;2023-05-03T19:07:49;4.80;;;3.00;;
16624;SDS011;8426;48.496;9.098;2023-05-03T19:12:55;4.32;;;2.78;;
16624;SDS011;8426;48.496;9.098;2023-05-03T19:18:01;5.30;;;2.47;;
16624;SDS011;8426;48.496;9.098;2023-05-03T19:23:04;5.85;;;3.33;;
16624;SDS011;8426;48.496;9.098;2023-05-03T19:28:10;4.75;;;3.20;;
16624;SDS011;8426;48.496;9.098;2023-05-03T19:33:13;4.80;;;2.42;;
16624;SDS011;8426;48.496;9.098;2023-05-03T19:38:17;5.55;;;3.10;;
16624;SDS011;8426;48.496;9.098;2023-05-03T19:43:22;6.72;;;3.60;;
16624;SDS011;8426;48.496;9.098;2023-05-03T19:48:25;4.65;;;2.88;;
16624;SDS011;8426;48.496;9.098;2023-05-03T19:53:30;7.43;;;3.30;;
16624;SDS011;8426;48.496;9.098;2023-05-03T19:58:38;5.07;;;3.13;;
16624;SDS011;8426;48.496;9.098;2023-05-03T20:03:41;6.00;;;3.20;;
16624;SDS011;8426;48.496;9.098;2023-05-03T20:08:45;5.13;;;2.70;;
16624;SDS011;8426;48.496;9.098;2023-05-03T20:13:51;4.43;;;2.65;;
16624;SDS011;8426;48.496;9.098;2023-05-03T20:18:54;5.80;;;3.33;;
16624;SDS011;8426;48.496;9.098;2023-05-03T20:23:58;4.97;;;2.85;;
16624;SDS011;8426;48.496;9.098;2023-05-03T20:29:03;4.65;;;3.08;;
16624;SDS011;8426;48.496;9.098;2023-05-03T20:34:08;4.97;;;3.45;;
16624;SDS011;8426;48.496;9.098;2023-05-03T20:39:12;6.75;;;3.95;;
16624;SDS011;8426;48.496;9.098;2023-05-03T20:44:17;6.25;;;4.10;;
16624;SDS011;8426;48.496;9.098;2023-05-03T20:49:21;10.05;;;4.55;;
16624;SDS011;8426;48.496;9.098;2023-05-03T20:54:25;7.95;;;4.32;;
16624;SDS011;8426;48.496;9.098;2023-05-03T20:59:31;7.85;;;4.57;;
16624;SDS011;8426;48.496;9.098;2023-05-03T21:04:35;10.30;;;4.45;;
16624;SDS011;8426;48.496;9.098;2023-05-03T21:09:39;9.45;;;4.88;;
16624;SDS011;8426;48.496;9.098;2023-05-03T21:14:44;12.90;;;4.50;;
16624;SDS011;8426;48.496;9.098;2023-05-03T21:19:47;7.75;;;4.97;;
16624;SDS011;8426;48.496;9.098;2023-05-03T21:24:50;7.72;;;4.63;;
16624;SDS011;8426;48.496;9.098;2023-05-03T21:29:55;8.48;;;4.63;;
16624;SDS011;8426;48.496;9.098;2023-05-03T21:34:59;8.27;;;4.07;;
16624;SDS011;8426;48.496;9.098;2023-05-03T21:40:02;8.82;;;4.80;;
16624;SDS011;8426;48.496;9.098;2023-05-03T21:45:10;11.82;;;5.03;;
16624;SDS011;8426;48.496;9.098;2023-05-03T21:50:15;9.60;;;5.57;;
16624;SDS011;8426;48.496;9.098;2023-05-03T21:55:19;10.35;;;5.15;;
16624;SDS011;8426;48.496;9.098;2023-05-03T22:00:24;6.60;;;4.88;;
16624;SDS011;8426;48.496;9.098;2023-05-03T22:05:27;8.35;;;4.25;;
16624;SDS011;8426;48.496;9.098;2023-05-03T22:10:31;7.35;;;4.63;;
16624;SDS011;8426;48.496;9.098;2023-05-03T22:15:36;7.72;;;4.70;;
16624;SDS011;8426;48.496;9.098;2023-05-03T22:20:40;7.50;;;4.55;;
16624;SDS011;8426;48.496;9.098;2023-05-03T22:25:43;16.05;;;6.18;;
16624;SDS011;8426;48.496;9.098;2023-05-03T22:30:48;8.77;;;5.30;;
16624;SDS011;8426;48.496;9.098;2023-05-03T22:35:52;13.48;;;5.70;;
16624;SDS011;8426;48.496;9.098;2023-05-03T22:40:56;13.60;;;5.32;;
16624;SDS011;8426;48.496;9.098;2023-05-03T22:46:01;10.93;;;5.20;;
16624;SDS011;8426;48.496;9.098;2023-05-03T22:51:04;10.05;;;4.60;;
16624;SDS011;8426;48.496;9.098;2023-05-03T22:56:08;7.50;;;4.90;;
16624;SDS011;8426;48.496;9.098;2023-05-03T23:01:13;7.93;;;4.43;;
16624;SDS011;8426;48.496;9.098;2023-05-03T23:06:17;9.68;;;4.97;;
16624;SDS011;8426;48.496;9.098;2023-05-03T23:11:21;13.63;;;4.93;;
16624;SDS011;8426;48.496;9.098;2023-05-03T23:16:26;10.93;;;5.22;;
16624;SDS011;8426;48.496;9.098;2023-05-03T23:21:30;7.85;;;4.60;;
16624;SDS011;8426;48.496;9.098;2023-05-03T23:26:34;7.40;;;4.60;;
16624;SDS011;8426;48.496;9.098;2023-05-03T23:31:42;9.77;;;4.50;;
16624;SDS011;8426;48.496;9.098;2023-05-03T23:36:49;7.15;;;4.10;;
16624;SDS011;8426;48.496;9.098;2023-05-03T23:41:54;9.93;;;4.97;;
16624;SDS011;8426;48.496;9.098;2023-05-03T23:46:59;8.57;;;4.45;;
16624;SDS011;8426;48.496;9.098;2023-05-03T23:52:02;7.47;;;4.63;;
16624;SDS011;8426;48.496;9.098;2023-05-03T23:57:06;10.88;;;4.85;;
